createdAt,value
2023-01-20T09:53:18.398Z,17.66
2023-01-20T09:56:56.084Z,18.04
2023-01-20T10:00:05.034Z,17.74
2023-01-20T10:03:33.698Z,17.84
2023-01-20T10:07:02.389Z,18.19
2023-01-20T10:10:35.683Z,18.03
2023-01-20T10:14:13.308Z,18.52
2023-01-20T10:17:22.186Z,18.37
2023-01-20T10:20:24.122Z,18.46
2023-01-20T10:23:56.191Z,18.47
2023-01-20T10:27:11.321Z,18.21
2023-01-20T10:30:40.201Z,18.65
2023-01-20T10:34:11.782Z,18.54
2023-01-20T10:37:40.390Z,18.35
2023-01-20T10:40:54.087Z,18.67
2023-01-20T10:43:23.786Z,18.65
2023-01-20T10:46:41.459Z,18.58
2023-01-20T10:50:08.549Z,18.75
2023-01-20T10:53:20.075Z,18.60
2023-01-20T10:56:14.267Z,18.63
2023-01-20T10:59:43.001Z,18.68
2023-01-20T11:02:35.456Z,18.85
2023-01-20T11:06:04.229Z,18.74
2023-01-20T11:09:32.873Z,18.75
2023-01-20T11:13:04.253Z,18.67
2023-01-20T11:16:32.884Z,18.83
2023-01-20T11:20:01.596Z,18.93
2023-01-20T11:23:30.306Z,18.65
2023-01-20T11:27:01.903Z,18.76
2023-01-20T11:30:27.270Z,18.42
2023-01-20T11:33:39.436Z,18.74
2023-01-20T11:37:08.221Z,18.73
2023-01-20T11:40:17.484Z,18.79
2023-01-20T11:43:46.285Z,18.69
2023-01-20T11:46:38.399Z,18.81
2023-01-20T11:49:56.387Z,18.85
2023-01-20T12:36:40.812Z,18.43
2023-01-20T12:39:28.672Z,18.73
2023-01-20T12:42:12.184Z,18.50
2023-01-20T12:44:50.056Z,18.80
2023-01-20T12:48:39.946Z,18.82
2023-01-20T12:52:00.883Z,19.03
2023-01-20T12:55:56.761Z,19.01
2023-01-20T12:59:16.992Z,19.03
2023-01-20T13:02:51.905Z,18.92
2023-01-20T13:05:46.924Z,19.24
2023-01-20T13:08:46.181Z,19.28
2023-01-20T13:11:32.994Z,19.39
2023-01-20T13:14:42.963Z,19.49
2023-01-20T13:17:28.315Z,19.52
2023-01-20T13:20:01.445Z,19.53
2023-01-20T13:22:32.144Z,19.56
2023-01-20T13:25:06.375Z,19.58
2023-01-20T13:27:39.399Z,19.51
2023-01-20T13:30:30.226Z,19.56
2023-01-20T13:33:08.892Z,19.62
2023-01-20T13:35:50.790Z,19.74
2023-01-20T13:38:26.366Z,19.76
2023-01-20T13:40:58.390Z,19.90
2023-01-20T13:43:38.179Z,19.81
2023-01-20T13:46:07.815Z,19.84
2023-01-20T13:49:34.903Z,20.04
2023-01-20T13:52:04.501Z,19.96
2023-01-20T13:55:36.102Z,19.98
2023-01-20T13:59:04.816Z,20.11
2023-01-20T14:02:33.515Z,20.26
2023-01-20T14:06:02.318Z,20.31
2023-01-20T14:08:42.591Z,20.45
2023-01-20T14:11:21.116Z,20.46
2023-01-20T14:14:58.790Z,20.62
2023-01-20T14:18:27.554Z,20.56
2023-01-20T14:21:39.507Z,20.87
2023-01-20T14:25:08.519Z,20.58
2023-01-20T14:27:43.347Z,20.68
2023-01-20T14:31:18.336Z,20.72
2023-01-20T14:34:27.312Z,20.89
2023-01-20T14:38:11.262Z,20.82
2023-01-20T14:41:40.192Z,20.78
2023-01-20T14:45:10.670Z,20.89
2023-01-20T14:48:40.552Z,21.00
2023-01-20T14:52:09.316Z,20.96
2023-01-20T14:55:37.935Z,20.91
2023-01-20T14:59:09.510Z,20.98
2023-01-20T15:01:53.527Z,21.09
2023-01-20T15:04:23.722Z,21.01
2023-01-20T15:06:59.809Z,20.93
2023-01-20T15:10:37.305Z,20.91
2023-01-20T15:14:05.940Z,20.87
2023-01-20T15:17:34.875Z,20.98
2023-01-20T15:21:16.963Z,21.15
2023-01-20T15:24:49.064Z,21.21
2023-01-20T15:28:20.538Z,21.31
2023-01-20T15:31:49.396Z,21.22
2023-01-20T15:35:18.043Z,21.20
2023-01-20T15:37:49.277Z,21.28
2023-01-20T15:41:18.362Z,21.07
2023-01-20T15:44:47.107Z,21.09
2023-01-20T15:48:15.788Z,21.31
2023-01-20T15:51:44.598Z,21.49
2023-01-20T15:55:13.269Z,21.21
2023-01-20T15:58:41.938Z,21.27
2023-01-20T16:02:13.538Z,21.56
2023-01-20T16:05:42.277Z,21.52
2023-01-20T16:09:17.010Z,21.69
2023-01-20T16:12:26.004Z,21.43
2023-01-20T16:15:54.626Z,21.26
2023-01-20T16:19:23.308Z,21.32
2023-01-20T16:22:25.936Z,21.54
2023-01-20T16:24:55.601Z,21.52
2023-01-20T16:27:25.310Z,21.50
2023-01-20T16:30:54.131Z,21.56
2023-01-20T16:34:22.807Z,21.41
2023-01-20T16:37:51.427Z,21.35
2023-01-20T16:41:20.069Z,21.50
2023-01-20T16:44:48.724Z,21.47
2023-01-20T16:47:39.341Z,21.68
2023-01-20T16:51:08.113Z,21.53
2023-01-20T16:53:58.420Z,21.41
2023-01-20T16:57:27.519Z,21.35
2023-01-20T17:00:56.277Z,21.59
2023-01-20T17:29:07.884Z,21.94
2023-01-20T17:31:38.245Z,22.05
2023-01-20T17:34:09.147Z,21.99
2023-01-20T17:36:40.219Z,21.92
2023-01-20T17:40:08.903Z,21.83
2023-01-20T17:43:37.511Z,21.93
2023-01-20T17:46:58.416Z,21.87
2023-01-20T17:50:27.048Z,22.00
2023-01-20T17:53:57.291Z,21.82
2023-01-20T17:57:27.137Z,21.91
2023-01-20T18:00:17.269Z,21.86
2023-01-20T18:02:47.075Z,21.84
2023-01-20T18:05:16.760Z,21.66
2023-01-20T18:07:46.397Z,21.68
2023-01-20T18:10:16.314Z,22.03
2023-01-20T18:12:46.156Z,21.93
2023-01-20T18:15:15.839Z,22.18
2023-01-20T18:17:45.445Z,21.96
2023-01-20T18:21:14.408Z,22.16
2023-01-20T18:24:43.140Z,22.05
2023-01-20T18:28:12.049Z,22.11
2023-01-20T18:31:40.742Z,22.09
2023-01-20T18:34:12.877Z,21.96
2023-01-20T18:37:41.545Z,21.81
2023-01-20T18:41:10.410Z,22.05
2023-01-20T18:44:39.078Z,22.22
2023-01-20T18:48:07.714Z,22.15
2023-01-20T18:51:39.246Z,22.09
2023-01-20T18:55:07.915Z,21.96
2023-01-20T18:58:36.527Z,22.00
2023-01-20T19:02:05.231Z,21.85
2023-01-20T19:05:33.861Z,22.08
2023-01-20T19:08:37.758Z,21.97
2023-01-20T19:12:06.383Z,22.02
2023-01-20T19:15:35.058Z,22.01
2023-01-20T19:19:03.784Z,22.14
2023-01-20T19:22:32.646Z,22.01
2023-01-20T19:26:01.339Z,21.93
2023-01-20T19:52:40.677Z,22.47
2023-01-20T19:55:11.865Z,22.36
2023-01-20T19:57:41.428Z,22.13
2023-01-20T20:00:11.686Z,22.34
2023-01-20T20:02:42.733Z,22.46
2023-01-20T20:05:12.752Z,22.13
2023-01-20T20:07:42.728Z,22.07
2023-01-20T20:10:12.815Z,22.43
2023-01-20T20:12:42.406Z,22.29
2023-01-20T20:15:12.473Z,22.47
2023-01-20T20:17:42.011Z,22.45
2023-01-20T20:20:12.345Z,22.48
2023-01-20T20:23:40.945Z,22.43
2023-01-20T20:27:09.712Z,22.61
2023-01-20T20:30:38.367Z,22.40
2023-01-20T20:34:07.074Z,22.44
2023-01-20T20:37:35.705Z,22.55
2023-01-20T20:41:04.508Z,22.63
2023-01-20T20:44:33.197Z,22.28
2023-01-20T20:48:01.856Z,22.30
2023-01-20T20:51:30.533Z,22.33
2023-01-20T20:54:22.184Z,22.40
2023-01-20T20:57:50.854Z,22.65
2023-01-20T21:01:19.729Z,22.35
2023-01-20T21:04:48.411Z,22.67
2023-01-20T21:08:17.078Z,22.27
2023-01-20T21:11:45.681Z,22.50
2023-01-20T21:15:14.596Z,22.45
2023-01-20T21:18:43.234Z,22.48
2023-01-20T21:22:11.899Z,22.53
2023-01-20T21:25:40.574Z,22.72
2023-01-20T21:29:09.253Z,22.56
2023-01-20T21:32:37.879Z,22.97
2023-01-20T21:36:06.627Z,22.63
2023-01-20T21:39:35.244Z,22.72
2023-01-20T21:43:02.292Z,22.94
2023-01-20T21:46:38.947Z,22.67
2023-01-20T21:50:06.113Z,22.73
2023-01-20T22:02:00.488Z,22.90
2023-01-20T22:04:49.848Z,22.90
2023-01-20T22:08:18.490Z,23.02
2023-01-20T22:11:47.212Z,22.76
2023-01-20T22:15:16.328Z,22.92
2023-01-20T22:18:44.918Z,22.85
2023-01-20T22:22:15.222Z,22.75
2023-01-20T22:25:43.960Z,22.93
2023-01-20T22:29:12.602Z,23.05
2023-01-20T22:32:41.193Z,22.77
2023-01-20T22:36:09.945Z,23.00
2023-01-20T22:39:38.533Z,22.78
2023-01-20T22:43:07.189Z,22.74
2023-01-20T22:46:41.441Z,22.62
2023-01-20T22:50:10.141Z,22.84
2023-01-20T22:53:38.786Z,22.89
2023-01-20T22:57:07.589Z,22.82
2023-01-20T23:00:36.655Z,22.84
2023-01-20T23:04:05.508Z,23.08
2023-01-20T23:07:34.218Z,23.01
2023-01-20T23:11:08.922Z,23.06
2023-01-20T23:14:37.544Z,23.20
2023-01-20T23:18:06.536Z,23.07
2023-01-20T23:21:35.134Z,23.16
2023-01-20T23:25:03.777Z,23.05
2023-01-20T23:28:32.382Z,23.26
2023-01-20T23:32:01.124Z,23.32
2023-01-20T23:35:29.872Z,23.33
2023-01-20T23:38:58.504Z,23.48
2023-01-20T23:42:27.229Z,23.21
2023-01-20T23:45:56.008Z,23.50
2023-01-20T23:49:24.720Z,22.91
2023-01-20T23:52:53.519Z,23.35
2023-01-20T23:55:23.118Z,22.94
2023-01-20T23:57:52.738Z,23.19
